createdAt,value
2022-11-12T00:02:12.290Z,2.94
2022-11-12T00:05:00.413Z,2.92
2022-11-12T00:07:48.296Z,2.89
2022-11-12T00:10:36.359Z,2.89
2022-11-12T00:13:24.234Z,2.89
2022-11-12T00:16:13.826Z,2.88
2022-11-12T00:19:01.812Z,2.88
2022-11-12T00:21:50.051Z,2.90
2022-11-12T00:24:38.052Z,2.91
2022-11-12T00:27:26.504Z,2.92
2022-11-12T00:30:14.991Z,2.92
2022-11-12T00:33:05.854Z,2.94
2022-11-12T00:35:53.625Z,2.99
2022-11-12T00:38:41.917Z,3.02
2022-11-12T00:41:29.892Z,3.04
2022-11-12T00:44:18.164Z,3.04
2022-11-12T00:47:06.162Z,3.04
2022-11-12T00:49:58.225Z,3.03
2022-11-12T00:52:47.017Z,3.05
2022-11-12T00:55:34.966Z,3.05
2022-11-12T00:58:23.698Z,3.03
2022-11-12T01:01:14.428Z,3.03
2022-11-12T01:04:02.611Z,3.04
2022-11-12T01:06:52.092Z,2.97
2022-11-12T01:09:40.168Z,2.92
2022-11-12T01:12:28.266Z,2.88
2022-11-12T01:15:16.161Z,2.86
2022-11-12T01:18:04.055Z,2.85
2022-11-12T01:20:52.057Z,2.87
2022-11-12T01:23:43.519Z,2.84
2022-11-12T01:26:31.861Z,2.84
2022-11-12T01:29:20.055Z,2.84
2022-11-12T01:32:08.528Z,2.87
2022-11-12T01:34:56.976Z,2.85
2022-11-12T01:37:45.156Z,2.82
2022-11-12T01:40:35.048Z,2.81
2022-11-12T01:43:24.260Z,2.79
2022-11-12T01:46:21.768Z,2.73
2022-11-12T01:49:16.417Z,2.73
2022-11-12T01:52:17.089Z,2.71
2022-11-12T01:55:12.292Z,2.65
2022-11-12T01:58:10.576Z,2.63
2022-11-12T02:00:59.089Z,2.64
2022-11-12T02:03:47.479Z,2.63
2022-11-12T02:06:36.801Z,2.64
2022-11-12T02:09:25.161Z,2.63
2022-11-12T02:12:33.417Z,2.65
2022-11-12T02:15:31.235Z,2.66
2022-11-12T02:18:19.907Z,2.66
2022-11-12T02:21:10.632Z,2.67
2022-11-12T02:24:06.240Z,2.68
2022-11-12T02:26:56.972Z,2.67
2022-11-12T02:29:47.200Z,2.69
2022-11-12T02:32:35.442Z,2.74
2022-11-12T02:35:23.361Z,2.69
2022-11-12T02:38:12.531Z,2.66
2022-11-12T02:41:02.217Z,2.71
2022-11-12T02:43:50.857Z,2.68
2022-11-12T02:46:38.709Z,2.67
2022-11-12T02:49:26.906Z,2.64
2022-11-12T02:52:15.173Z,2.63
2022-11-12T02:55:03.424Z,2.61
2022-11-12T02:57:53.080Z,2.58
2022-11-12T03:00:42.126Z,2.62
2022-11-12T03:03:30.377Z,2.62
2022-11-12T03:06:18.523Z,2.61
2022-11-12T03:09:06.537Z,2.62
2022-11-12T03:11:54.427Z,2.60
2022-11-12T03:14:43.733Z,2.56
2022-11-12T03:17:32.761Z,2.52
2022-11-12T03:20:21.551Z,2.48
2022-11-12T03:23:12.469Z,2.47
2022-11-12T03:26:03.393Z,2.49
2022-11-12T03:28:53.150Z,2.47
2022-11-12T03:31:43.172Z,2.46
2022-11-12T03:34:30.968Z,2.44
2022-11-12T03:37:19.460Z,2.43
2022-11-12T03:40:09.950Z,2.36
2022-11-12T03:42:58.516Z,2.36
2022-11-12T03:45:46.639Z,2.31
2022-11-12T03:48:36.257Z,2.26
2022-11-12T03:51:24.980Z,2.26
2022-11-12T03:54:13.384Z,2.23
2022-11-12T03:57:01.589Z,2.24
2022-11-12T03:59:49.974Z,2.24
2022-11-12T04:02:42.034Z,2.27
2022-11-12T04:05:49.252Z,2.25
2022-11-12T04:08:37.655Z,2.25
2022-11-12T04:11:25.951Z,2.24
2022-11-12T04:14:14.014Z,2.25
2022-11-12T04:17:19.401Z,2.21
2022-11-12T04:20:27.993Z,2.20
2022-11-12T04:23:17.481Z,2.20
2022-11-12T04:26:23.432Z,2.19
2022-11-12T04:29:29.020Z,2.22
2022-11-12T04:32:18.134Z,2.18
2022-11-12T04:35:09.646Z,2.09
2022-11-12T04:37:57.564Z,2.07
2022-11-12T04:41:05.089Z,2.10
2022-11-12T04:44:10.704Z,2.03
2022-11-12T04:47:00.083Z,2.02
2022-11-12T04:49:48.091Z,2.05
2022-11-12T04:52:36.575Z,2.10
2022-11-12T04:55:24.574Z,2.00
2022-11-12T04:58:14.433Z,2.01
2022-11-12T05:01:03.765Z,1.95
2022-11-12T05:03:52.177Z,1.94
2022-11-12T05:06:55.277Z,1.90
2022-11-12T05:10:34.595Z,1.84
2022-11-12T05:13:24.060Z,1.81
2022-11-12T05:16:14.068Z,1.81
2022-11-12T05:19:02.396Z,1.79
2022-11-12T05:22:17.484Z,1.78
2022-11-12T05:25:11.025Z,1.75
2022-11-12T05:27:59.009Z,1.70
2022-11-12T05:30:50.953Z,1.72
2022-11-12T05:33:39.376Z,1.70
2022-11-12T05:36:27.416Z,1.63
2022-11-12T05:39:15.332Z,1.60
2022-11-12T05:42:12.870Z,1.60
2022-11-12T05:45:02.214Z,1.62
2022-11-12T05:47:51.457Z,1.59
2022-11-12T05:51:06.154Z,1.57
2022-11-12T05:53:47.414Z,1.55
2022-11-12T05:56:36.909Z,1.48
2022-11-12T05:59:25.223Z,1.48
2022-11-12T06:02:13.921Z,1.41
2022-11-12T06:05:03.623Z,1.41
2022-11-12T06:07:51.732Z,1.39
2022-11-12T06:10:39.924Z,1.41
2022-11-12T06:13:28.210Z,1.46
2022-11-12T06:16:16.286Z,1.50
2022-11-12T06:19:04.881Z,1.51
2022-11-12T06:21:54.569Z,1.52
2022-11-12T06:24:43.226Z,1.57
2022-11-12T06:27:31.310Z,1.58
2022-11-12T06:30:23.032Z,1.58
2022-11-12T06:33:13.424Z,1.64
2022-11-12T06:36:05.175Z,1.65
2022-11-12T06:38:54.567Z,1.64
2022-11-12T06:41:42.970Z,1.63
2022-11-12T06:44:31.192Z,1.64
2022-11-12T06:47:19.389Z,1.69
2022-11-12T06:50:08.052Z,1.73
2022-11-12T06:53:00.246Z,1.79
2022-11-12T06:55:49.933Z,1.82
2022-11-12T06:58:38.029Z,1.88
2022-11-12T07:01:25.999Z,1.92
2022-11-12T07:04:14.512Z,1.88
2022-11-12T07:07:04.737Z,1.89
2022-11-12T07:09:55.740Z,1.88
2022-11-12T07:12:50.462Z,1.91
2022-11-12T07:15:40.863Z,1.93
2022-11-12T07:18:29.810Z,1.90
2022-11-12T07:21:21.324Z,1.92
2022-11-12T07:24:10.696Z,1.91
2022-11-12T07:26:58.754Z,1.97
2022-11-12T07:29:48.905Z,1.92
2022-11-12T07:32:43.271Z,1.93
2022-11-12T07:35:33.141Z,1.94
2022-11-12T07:38:21.205Z,1.94
2022-11-12T07:41:14.217Z,1.93
2022-11-12T07:44:02.325Z,1.93
2022-11-12T07:46:51.592Z,1.99
2022-11-12T07:49:39.969Z,2.06
2022-11-12T07:52:28.219Z,2.14
2022-11-12T07:55:16.591Z,2.16
2022-11-12T07:58:04.838Z,2.26
2022-11-12T08:00:54.028Z,2.24
2022-11-12T08:03:43.339Z,2.26
2022-11-12T08:06:33.306Z,2.34
2022-11-12T08:09:21.371Z,2.35
2022-11-12T08:12:09.636Z,2.35
2022-11-12T08:14:57.891Z,2.40
2022-11-12T08:17:46.209Z,2.39
2022-11-12T08:20:35.734Z,2.36
2022-11-12T08:23:24.152Z,2.49
2022-11-12T08:26:16.390Z,2.47
2022-11-12T08:29:08.555Z,2.58
2022-11-12T08:31:57.180Z,2.63
2022-11-12T08:34:45.164Z,2.68
2022-11-12T08:37:34.554Z,2.73
2022-11-12T08:40:22.502Z,2.78
2022-11-12T08:43:12.084Z,2.88
2022-11-12T08:46:01.892Z,2.90
2022-11-12T08:48:49.733Z,2.96
2022-11-12T08:51:38.949Z,2.99
2022-11-12T08:54:28.105Z,3.07
2022-11-12T08:57:16.478Z,3.11
2022-11-12T09:00:06.658Z,3.08
2022-11-12T09:02:54.810Z,3.10
2022-11-12T09:05:42.988Z,3.15
2022-11-12T09:08:31.424Z,3.18
2022-11-12T09:11:21.058Z,3.27
2022-11-12T09:14:09.433Z,3.27
2022-11-12T09:16:57.442Z,3.28
2022-11-12T09:19:45.581Z,3.33
2022-11-12T09:22:34.359Z,3.44
2022-11-12T09:25:22.600Z,3.55
2022-11-12T09:28:14.765Z,3.59
2022-11-12T09:31:04.136Z,3.65
2022-11-12T09:33:53.376Z,3.68
2022-11-12T09:36:41.705Z,3.80
2022-11-12T09:39:30.622Z,3.85
2022-11-12T09:42:23.695Z,3.87
2022-11-12T09:45:20.308Z,3.91
2022-11-12T09:48:14.392Z,3.93
2022-11-12T09:51:11.582Z,4.02
2022-11-12T09:54:03.916Z,4.15
2022-11-12T09:56:54.557Z,4.25
2022-11-12T09:59:43.891Z,4.32
2022-11-12T10:02:40.811Z,4.38
2022-11-12T10:05:34.874Z,4.50
2022-11-12T10:08:40.799Z,4.58
2022-11-12T10:12:17.948Z,4.57
2022-11-12T10:15:56.675Z,4.69
2022-11-12T10:19:19.038Z,4.86
2022-11-12T10:22:36.989Z,4.96
2022-11-12T10:25:28.037Z,5.10
2022-11-12T10:28:31.918Z,5.23
2022-11-12T10:31:24.016Z,5.32
2022-11-12T10:34:21.812Z,5.40
2022-11-12T10:37:21.188Z,5.50
2022-11-12T10:40:38.689Z,5.56
2022-11-12T10:43:26.891Z,5.63
2022-11-12T10:46:21.860Z,5.68
2022-11-12T10:49:26.869Z,5.73
2022-11-12T10:52:26.299Z,5.80
2022-11-12T10:55:20.081Z,5.86
2022-11-12T10:58:20.865Z,5.90
2022-11-12T11:01:18.833Z,5.95
2022-11-12T11:04:19.125Z,5.98
2022-11-12T11:07:22.998Z,6.02
2022-11-12T11:10:27.500Z,6.06
2022-11-12T11:13:23.133Z,6.10
2022-11-12T11:16:16.758Z,6.14
2022-11-12T11:19:06.618Z,6.20
2022-11-12T11:22:10.544Z,6.25
2022-11-12T11:25:20.971Z,6.29
2022-11-12T11:28:23.240Z,6.34
2022-11-12T11:31:27.516Z,6.36
2022-11-12T11:34:36.642Z,6.30
2022-11-12T11:37:31.424Z,6.25
2022-11-12T11:40:30.272Z,6.18
2022-11-12T11:43:50.476Z,6.14
2022-11-12T11:46:55.482Z,6.13
2022-11-12T11:50:19.329Z,6.14
2022-11-12T11:53:24.876Z,6.22
2022-11-12T11:56:25.527Z,6.22
2022-11-12T11:59:38.584Z,6.28
2022-11-12T12:02:54.870Z,6.33
2022-11-12T12:05:51.649Z,6.34
2022-11-12T12:09:01.013Z,6.37
2022-11-12T12:12:03.422Z,6.37
2022-11-12T12:15:11.249Z,6.38
2022-11-12T12:18:14.594Z,6.38
2022-11-12T12:21:10.884Z,6.40
2022-11-12T12:24:06.709Z,6.44
2022-11-12T12:26:59.605Z,6.47
2022-11-12T12:29:52.649Z,6.48
2022-11-12T12:32:48.078Z,6.52
2022-11-12T12:35:45.933Z,6.53
2022-11-12T12:38:43.576Z,6.47
2022-11-12T12:41:45.288Z,6.45
2022-11-12T12:45:04.882Z,6.48
2022-11-12T12:47:54.515Z,6.48
2022-11-12T12:50:43.905Z,6.47
2022-11-12T12:53:36.985Z,6.46
2022-11-12T12:56:49.462Z,6.47
2022-11-12T12:59:37.705Z,6.51
2022-11-12T13:02:26.790Z,6.55
2022-11-12T13:05:32.479Z,6.54
2022-11-12T13:08:26.310Z,6.53
2022-11-12T13:12:12.837Z,6.49
2022-11-12T13:15:16.363Z,6.41
2022-11-12T13:18:04.683Z,6.44
2022-11-12T13:21:11.687Z,6.47
2022-11-12T13:24:11.816Z,6.50
2022-11-12T13:27:02.011Z,6.53
2022-11-12T13:29:50.253Z,6.52
2022-11-12T13:32:43.503Z,6.49
2022-11-12T13:35:35.811Z,6.46
2022-11-12T13:38:24.601Z,6.42
2022-11-12T13:41:40.257Z,6.37
2022-11-12T13:44:30.958Z,6.38
2022-11-12T13:47:24.473Z,6.36
2022-11-12T13:50:19.096Z,6.36
2022-11-12T13:53:10.229Z,6.34
2022-11-12T13:55:58.705Z,6.37
2022-11-12T13:58:46.880Z,6.39
2022-11-12T14:01:36.611Z,6.42
2022-11-12T14:04:26.480Z,6.45
2022-11-12T14:07:39.405Z,6.50
2022-11-12T14:10:42.213Z,6.49
2022-11-12T14:13:54.054Z,6.48
2022-11-12T14:17:05.981Z,6.48
2022-11-12T14:20:27.735Z,6.43
2022-11-12T14:23:24.432Z,6.38
2022-11-12T14:26:15.047Z,6.33
2022-11-12T14:29:03.456Z,6.26
2022-11-12T14:32:03.546Z,6.23
2022-11-12T14:34:51.889Z,6.24
2022-11-12T14:37:43.724Z,6.22
2022-11-12T14:40:37.619Z,6.19
2022-11-12T14:43:34.555Z,6.18
2022-11-12T14:46:27.751Z,6.12
2022-11-12T14:49:29.515Z,6.07
2022-11-12T14:52:22.567Z,6.01
2022-11-12T14:55:17.427Z,5.98
2022-11-12T14:58:07.103Z,5.97
2022-11-12T15:00:58.672Z,5.92
2022-11-12T15:03:46.834Z,5.91
2022-11-12T15:06:36.727Z,5.86
2022-11-12T15:09:42.947Z,5.79
2022-11-12T15:12:34.976Z,5.76
2022-11-12T15:15:23.739Z,5.74
2022-11-12T15:18:19.878Z,5.73
2022-11-12T15:21:19.694Z,5.73
2022-11-12T15:24:27.861Z,5.72
2022-11-12T15:27:40.246Z,5.69
2022-11-12T15:30:31.888Z,5.65
2022-11-12T15:33:24.444Z,5.61
2022-11-12T15:36:19.907Z,5.56
2022-11-12T15:39:15.824Z,5.49
2022-11-12T15:42:15.788Z,5.47
2022-11-12T15:45:15.975Z,5.48
2022-11-12T15:48:03.998Z,5.43
2022-11-12T15:50:52.271Z,5.44
2022-11-12T15:53:40.219Z,5.43
2022-11-12T15:56:30.878Z,5.41
2022-11-12T15:59:19.483Z,5.42
2022-11-12T16:02:14.150Z,5.41
2022-11-12T16:05:02.317Z,5.42
2022-11-12T16:07:50.577Z,5.39
2022-11-12T16:10:40.836Z,5.37
2022-11-12T16:13:34.461Z,5.32
2022-11-12T16:16:22.956Z,5.28
2022-11-12T16:19:16.649Z,5.26
2022-11-12T16:22:12.312Z,5.22
2022-11-12T16:25:00.366Z,5.19
2022-11-12T16:27:54.460Z,5.16
2022-11-12T16:30:47.695Z,5.14
2022-11-12T16:33:35.996Z,5.13
2022-11-12T16:36:24.950Z,5.09
2022-11-12T16:39:15.263Z,5.08
2022-11-12T16:42:04.078Z,5.08
2022-11-12T16:44:52.270Z,5.07
2022-11-12T16:47:46.740Z,5.04
2022-11-12T16:50:34.797Z,5.01
2022-11-12T16:53:23.016Z,5.02
2022-11-12T16:56:15.438Z,5.02
2022-11-12T16:59:04.510Z,4.99
2022-11-12T17:01:52.996Z,4.97
2022-11-12T17:04:42.748Z,4.95
2022-11-12T17:07:31.136Z,4.96
2022-11-12T17:10:23.781Z,4.97
2022-11-12T17:13:14.311Z,4.98
2022-11-12T17:16:02.631Z,5.00
2022-11-12T17:18:55.617Z,5.02
2022-11-12T17:21:46.503Z,4.97
2022-11-12T17:24:34.986Z,4.94
2022-11-12T17:27:23.647Z,4.91
2022-11-12T17:30:13.640Z,4.88
2022-11-12T17:33:02.015Z,4.88
2022-11-12T17:35:50.301Z,4.86
2022-11-12T17:38:40.266Z,4.85
2022-11-12T17:41:29.710Z,4.85
2022-11-12T17:44:19.870Z,4.85
2022-11-12T17:47:08.307Z,4.88
2022-11-12T17:49:56.701Z,4.85
2022-11-12T17:52:44.720Z,4.85
2022-11-12T17:55:34.392Z,4.86
2022-11-12T17:58:22.510Z,4.85
2022-11-12T18:01:16.356Z,4.78
2022-11-12T18:04:04.551Z,4.74
2022-11-12T18:06:52.788Z,4.70
2022-11-12T18:09:40.886Z,4.70
2022-11-12T18:12:30.449Z,4.69
2022-11-12T18:15:18.758Z,4.69
2022-11-12T18:18:07.005Z,4.66
2022-11-12T18:20:55.616Z,4.64
2022-11-12T18:23:46.119Z,4.61
2022-11-12T18:26:34.535Z,4.59
2022-11-12T18:29:24.409Z,4.54
2022-11-12T18:32:12.532Z,4.52
2022-11-12T18:35:00.369Z,4.49
2022-11-12T18:37:48.362Z,4.47
2022-11-12T18:40:36.620Z,4.40
2022-11-12T18:43:24.999Z,4.39
2022-11-12T18:46:14.689Z,4.37
2022-11-12T18:49:02.708Z,4.34
2022-11-12T18:51:50.588Z,4.34
2022-11-12T18:54:38.677Z,4.33
2022-11-12T18:57:26.694Z,4.33
2022-11-12T19:00:16.818Z,4.33
2022-11-12T19:03:06.386Z,4.34
2022-11-12T19:05:59.540Z,4.35
2022-11-12T19:08:47.480Z,4.38
2022-11-12T19:11:35.357Z,4.38
2022-11-12T19:14:25.232Z,4.38
2022-11-12T19:17:13.484Z,4.40
2022-11-12T19:20:02.841Z,4.39
2022-11-12T19:22:50.866Z,4.39
2022-11-12T19:25:38.908Z,4.40
2022-11-12T19:28:27.496Z,4.40
2022-11-12T19:31:19.316Z,4.38
2022-11-12T19:34:07.484Z,4.38
2022-11-12T19:37:26.726Z,4.37
2022-11-12T19:40:09.866Z,4.36
2022-11-12T19:42:57.839Z,4.37
2022-11-12T19:45:45.948Z,4.37
2022-11-12T19:48:34.004Z,4.36
2022-11-12T19:51:24.130Z,4.35
2022-11-12T19:54:13.727Z,4.33
2022-11-12T19:57:01.897Z,4.30
2022-11-12T19:59:49.851Z,4.28
2022-11-12T20:02:37.995Z,4.24
2022-11-12T20:05:26.886Z,4.23
2022-11-12T20:08:14.929Z,4.24
2022-11-12T20:11:05.400Z,4.24
2022-11-12T20:13:54.351Z,4.23
2022-11-12T20:16:42.376Z,4.22
2022-11-12T20:19:30.815Z,4.25
2022-11-12T20:22:18.848Z,4.23
2022-11-12T20:25:07.923Z,4.23
2022-11-12T20:27:57.369Z,4.22
2022-11-12T20:30:45.787Z,4.20
2022-11-12T20:33:37.970Z,4.18
2022-11-12T20:36:31.387Z,4.20
2022-11-12T20:39:19.915Z,4.17
2022-11-12T20:42:09.866Z,4.19
2022-11-12T20:44:59.405Z,4.20
2022-11-12T20:47:47.646Z,4.23
2022-11-12T20:50:36.878Z,4.24
2022-11-12T20:53:25.284Z,4.27
2022-11-12T20:56:16.584Z,4.26
2022-11-12T20:59:04.896Z,4.28
2022-11-12T21:01:57.538Z,4.29
2022-11-12T21:04:45.506Z,4.31
2022-11-12T21:07:33.829Z,4.32
2022-11-12T21:10:22.027Z,4.31
2022-11-12T21:13:10.466Z,4.31
2022-11-12T21:15:58.843Z,4.31
2022-11-12T21:18:48.166Z,4.28
2022-11-12T21:21:36.136Z,4.23
2022-11-12T21:24:24.300Z,4.23
2022-11-12T21:27:13.794Z,4.22
2022-11-12T21:30:02.168Z,4.19
2022-11-12T21:32:50.131Z,4.20
2022-11-12T21:35:39.779Z,4.19
2022-11-12T21:38:29.001Z,4.18
2022-11-12T21:41:22.357Z,4.15
2022-11-12T21:44:10.754Z,4.13
2022-11-12T21:46:58.892Z,4.11
2022-11-12T21:49:46.765Z,4.10
2022-11-12T21:52:36.218Z,4.06
2022-11-12T21:55:24.395Z,4.04
2022-11-12T21:58:12.556Z,4.04
2022-11-12T22:01:10.340Z,4.06
2022-11-12T22:04:00.037Z,4.07
2022-11-12T22:06:48.479Z,4.05
2022-11-12T22:09:37.865Z,4.04
2022-11-12T22:12:26.133Z,4.04
2022-11-12T22:15:14.217Z,4.04
2022-11-12T22:18:02.339Z,4.05
2022-11-12T22:20:59.336Z,4.07
2022-11-12T22:23:48.062Z,4.10
2022-11-12T22:26:37.994Z,4.07
2022-11-12T22:29:26.013Z,4.06
2022-11-12T22:32:14.123Z,4.07
2022-11-12T22:35:02.613Z,4.05
2022-11-12T22:37:50.914Z,4.05
2022-11-12T22:40:39.718Z,4.04
2022-11-12T22:43:29.286Z,4.02
2022-11-12T22:46:22.019Z,4.02
2022-11-12T22:49:10.176Z,3.99
2022-11-12T22:51:58.397Z,3.98
2022-11-12T22:54:46.486Z,3.96
2022-11-12T22:57:35.245Z,3.95
2022-11-12T23:00:33.092Z,3.92
2022-11-12T23:03:21.069Z,3.94
2022-11-12T23:06:09.709Z,3.94
2022-11-12T23:09:00.435Z,3.94
2022-11-12T23:11:48.274Z,3.95
2022-11-12T23:14:36.886Z,3.95
2022-11-12T23:17:26.310Z,3.96
2022-11-12T23:20:14.690Z,3.96
2022-11-12T23:23:02.988Z,3.97
2022-11-12T23:25:50.916Z,3.94
2022-11-12T23:28:39.856Z,3.93
2022-11-12T23:31:31.871Z,3.94
2022-11-12T23:34:21.373Z,3.94
2022-11-12T23:37:09.463Z,3.94
2022-11-12T23:39:57.327Z,3.94
2022-11-12T23:42:45.356Z,3.96
2022-11-12T23:45:38.004Z,3.96
2022-11-12T23:48:27.295Z,3.96
2022-11-12T23:51:20.521Z,3.95
2022-11-12T23:54:09.977Z,3.96
2022-11-12T23:56:58.219Z,3.95
2022-11-12T23:59:46.513Z,3.94
